VTSP Airport Information

Runway Information
Runway 09 Length 9843 ft width 148 ft
Elevation 19 ft Threshold 0 ft Heading 85
Runway 27 Length 9843 ft Width 148 ft
Elevation 82 ft Threshold 0 ft Heading 265
Airport Frequencies
Type APP Name APP Frequency 124.7 MHZ
Type ATIS Name ATIS Frequency 128 MHZ
Type GND Name GND Frequency 121.9 MHZ
Type TWR Name TWR Frequency 118.1 MHZ
Airport Navaids
Type NDB Name Phuket Frequency 360 KHZ
Type VOR-DME Name Phuket Frequency 116900 KHZ
Airport Weather Information & NOTAM
ADDS - METARS form results

(0847 UTC 24 April 2018)
 
METAR text: VTSP 240830Z 24003KT 170V290 9999 FEW020 BKN100 29/25 Q1009 NOSIG
Conditions at: VTSP (PHUKET INTL AIRP, TH) observed 0830 UTC 24 April 2018
Temperature: 29.0°C (84°F)
Dewpoint: 25.0°C (77°F) [RH = 79%]
Pressure (altimeter): 29.79 inches Hg (1009.0 mb)
Winds: from the WSW (240 degrees) at 3 MPH (3 knots; 1.6 m/s)
Visibility: 6 or more miles (10+ km)
Ceiling: 10000 feet AGL
Clouds: few clouds at 2000 feet AGL
broken clouds at 10000 feet AGL
Weather: no significant weather observed at this time

METAR text: VTSP 240800Z VRB02KT 9999 FEW020 BKN100 29/25 Q1009 NOSIG
Conditions at: VTSP (PHUKET INTL AIRP, TH) observed 0800 UTC 24 April 2018
Temperature: 29.0°C (84°F)
Dewpoint: 25.0°C (77°F) [RH = 79%]
Pressure (altimeter): 29.79 inches Hg (1009.0 mb)
Winds: variable direction winds at 2 MPH (2 knots; 1.0 m/s)
Visibility: 6 or more miles (10+ km)
Ceiling: 10000 feet AGL
Clouds: few clouds at 2000 feet AGL
broken clouds at 10000 feet AGL
Weather: no significant weather observed at this time